Ironia, New Jersey
Current Conditions -  °F | °C
As of 4:45 PM on Thursday 27 Nov 2014 (Local Time) from KMMU Reporting Station
Broken Clouds Broken Clouds  
Wind Chill: 34°   Ceiling: 2000
Heat Index: 34°   Visibility: 10mi
Dew Point: 28°   Wind: 0mph
Humidity: 81%   Direction: NA
Pressure: 30.02"   Gusts: NA
Location:  40.82°N, 74.63°W
Report Text: KMMU 272145Z 00000KT 10SM BKN020 01/M02 A3002
Loading
Personal Weather Stations






























Interactive Weather Map New forecast layout! Learn more

10-Day Weather Forecast

Advertisements
Track Severe Weather on mobile